Montague, Massachusetts
Current Conditions -  °F | °C
As of 4:52 PM on Monday 20 Oct 2014 (Local Time) from KORE Reporting Station
Overcast Overcast  
Wind Chill: 54°   Ceiling: 9500
Heat Index: 54°   Visibility: 10mi
Dew Point: 35°   Wind: 9mph
Humidity: 49%   Direction: 200°SSW
Pressure: 29.95"   Gusts: NA
Location:  42.54°N, 72.54°W
Report Text: KORE 202052Z AUTO 20008KT 10SM OVC095 12/02 A2995 RMK AO2 SLP148 T01220017 55007
Loading
Personal Weather Stations






























Interactive Weather Map
Tropical Storm Tracking
New forecast layout! Learn more

10-Day Weather Forecast

Advertisements
Track Severe Weather on mobile